createdAt,value
2017-07-03T00:00:48.549Z,0
2017-07-03T00:01:57.437Z,0
2017-07-03T00:03:06.649Z,0
2017-07-03T00:04:15.635Z,0
2017-07-03T00:05:24.855Z,0
2017-07-03T00:06:33.743Z,0
2017-07-03T00:07:42.633Z,0
2017-07-03T00:08:52.500Z,0
2017-07-03T00:10:02.338Z,0
2017-07-03T00:11:11.227Z,0
2017-07-03T00:12:20.772Z,0
2017-07-03T00:13:29.991Z,0
2017-07-03T00:14:39.857Z,0
2017-07-03T00:15:49.225Z,0
2017-07-03T00:16:58.160Z,0
2017-07-03T00:18:07.368Z,0
2017-07-03T00:19:16.590Z,0
2017-07-03T00:20:25.801Z,0
2017-07-03T00:21:35.312Z,0
2017-07-03T00:22:44.524Z,0
2017-07-03T00:23:53.738Z,0
2017-07-03T00:25:03.283Z,0
2017-07-03T00:26:12.170Z,0
2017-07-03T00:27:21.380Z,0
2017-07-03T00:28:31.250Z,0
2017-07-03T00:29:40.464Z,0
2017-07-03T00:30:50.003Z,0
2017-07-03T00:31:59.215Z,0
2017-07-03T00:33:08.303Z,0
2017-07-03T00:34:17.191Z,0
2017-07-03T00:35:26.407Z,0
2017-07-03T00:36:35.623Z,0
2017-07-03T00:37:44.838Z,0
2017-07-03T00:38:54.203Z,0
2017-07-03T00:40:04.062Z,0
2017-07-03T00:41:12.954Z,0
2017-07-03T00:42:22.169Z,0
2017-07-03T00:43:31.708Z,0
2017-07-03T00:44:41.300Z,0
2017-07-03T00:45:50.512Z,0
2017-07-03T00:46:59.400Z,0
2017-07-03T00:48:08.611Z,0
2017-07-03T00:49:17.821Z,0
2017-07-03T00:50:27.357Z,0
2017-07-03T00:51:36.914Z,0
2017-07-03T00:52:45.798Z,0
2017-07-03T00:53:55.013Z,0
2017-07-03T00:55:04.230Z,0
2017-07-03T00:56:14.095Z,0
2017-07-03T00:57:23.307Z,0
2017-07-03T00:58:32.536Z,0
2017-07-03T00:59:41.418Z,0
2017-07-03T01:00:50.305Z,0
2017-07-03T01:01:59.517Z,0
2017-07-03T01:03:08.763Z,0
2017-07-03T01:04:18.304Z,0
2017-07-03T01:05:27.195Z,0
2017-07-03T01:06:36.407Z,0
2017-07-03T01:07:45.771Z,0
2017-07-03T01:08:54.983Z,0
2017-07-03T01:10:04.524Z,0
2017-07-03T01:11:13.417Z,0
2017-07-03T01:12:22.631Z,0
2017-07-03T01:13:32.145Z,0
2017-07-03T01:14:41.685Z,0
2017-07-03T01:15:50.898Z,0
2017-07-03T01:17:00.436Z,0
2017-07-03T01:18:10.298Z,0
2017-07-03T01:19:20.915Z,0
2017-07-03T01:20:30.448Z,0
2017-07-03T01:21:39.336Z,0
2017-07-03T01:22:48.550Z,0
2017-07-03T01:23:57.762Z,0
2017-07-03T01:25:06.805Z,0
2017-07-03T01:26:16.024Z,0
2017-07-03T01:27:25.233Z,0
2017-07-03T01:28:34.121Z,0
2017-07-03T01:29:43.653Z,0
2017-07-03T01:30:53.517Z,0
2017-07-03T01:32:02.405Z,0
2017-07-03T01:33:11.293Z,0
2017-07-03T01:34:20.180Z,0
2017-07-03T01:35:29.398Z,0
2017-07-03T01:36:38.758Z,0
2017-07-03T01:37:47.968Z,0
2017-07-03T01:38:57.828Z,0
2017-07-03T01:40:07.048Z,0
2017-07-03T01:41:16.587Z,0
2017-07-03T01:42:26.106Z,0
2017-07-03T01:43:35.319Z,0
2017-07-03T01:44:44.858Z,0
2017-07-03T01:45:54.073Z,0
2017-07-03T01:47:03.285Z,0
2017-07-03T01:48:13.000Z,0
2017-07-03T01:49:22.543Z,0
2017-07-03T01:50:32.421Z,0
2017-07-03T01:51:41.630Z,0
2017-07-03T01:52:51.816Z,0
2017-07-03T01:54:01.502Z,0
2017-07-03T01:55:10.713Z,0
2017-07-03T01:56:19.597Z,0
2017-07-03T01:57:29.152Z,0
2017-07-03T01:58:38.361Z,0
2017-07-03T01:59:47.604Z,0
2017-07-03T02:00:56.489Z,0
2017-07-03T02:02:05.379Z,0
2017-07-03T02:03:14.600Z,0
2017-07-03T02:04:25.126Z,0
2017-07-03T02:05:34.586Z,0
2017-07-03T02:06:43.473Z,0
2017-07-03T02:07:52.683Z,0
2017-07-03T02:09:01.897Z,0
2017-07-03T02:10:10.787Z,0
2017-07-03T02:11:20.328Z,0
2017-07-03T02:12:29.212Z,0
2017-07-03T02:13:39.075Z,0
2017-07-03T02:14:48.285Z,0
2017-07-03T02:15:57.822Z,0
2017-07-03T02:17:07.082Z,0
2017-07-03T02:18:16.296Z,0
2017-07-03T02:19:25.835Z,0
2017-07-03T02:20:35.045Z,0
2017-07-03T02:21:43.932Z,0
2017-07-03T02:22:52.821Z,0
2017-07-03T02:24:01.708Z,0
2017-07-03T02:25:10.597Z,0
2017-07-03T02:26:19.485Z,0
2017-07-03T02:27:29.026Z,0
2017-07-03T02:28:39.511Z,0
2017-07-03T02:29:49.049Z,0
2017-07-03T02:30:57.937Z,0
2017-07-03T02:32:06.872Z,0
2017-07-03T02:33:15.760Z,0
2017-07-03T02:34:25.024Z,0
2017-07-03T02:35:34.244Z,0
2017-07-03T02:36:43.457Z,0
2017-07-03T02:37:52.992Z,0
2017-07-03T02:39:02.210Z,0
2017-07-03T02:40:11.247Z,0
2017-07-03T02:41:20.187Z,0
2017-07-03T02:42:29.397Z,0
2017-07-03T02:43:38.287Z,0
2017-07-03T02:44:47.502Z,0
2017-07-03T02:45:56.861Z,0
2017-07-03T02:47:06.395Z,0
2017-07-03T02:48:15.936Z,0
2017-07-03T02:49:25.475Z,0
2017-07-03T02:50:34.689Z,0
2017-07-03T02:51:44.057Z,0
2017-07-03T02:52:53.272Z,0
2017-07-03T02:54:02.482Z,0
2017-07-03T02:55:12.018Z,0
2017-07-03T02:56:21.885Z,5
2017-07-03T02:57:31.572Z,5
2017-07-03T02:58:41.430Z,5
2017-07-03T02:59:50.322Z,5
2017-07-03T03:00:59.545Z,5
2017-07-03T03:02:08.433Z,5
2017-07-03T03:03:17.900Z,5
2017-07-03T03:04:27.439Z,5
2017-07-03T03:05:36.975Z,5
2017-07-03T03:06:46.516Z,10
2017-07-03T03:07:55.732Z,10
2017-07-03T03:09:04.926Z,10
2017-07-03T03:10:14.786Z,10
2017-07-03T03:11:23.997Z,10
2017-07-03T03:12:33.210Z,10
2017-07-03T03:13:43.077Z,15
2017-07-03T03:14:52.723Z,15
2017-07-03T03:16:02.257Z,15
2017-07-03T03:17:11.471Z,15
2017-07-03T03:18:20.691Z,15
2017-07-03T03:19:30.224Z,20
2017-07-03T03:20:39.162Z,20
2017-07-03T03:21:48.043Z,20
2017-07-03T03:22:56.924Z,20
2017-07-03T03:24:05.815Z,25
2017-07-03T03:25:14.705Z,25
2017-07-03T03:26:24.077Z,25
2017-07-03T03:27:33.288Z,25
2017-07-03T03:28:42.826Z,30
2017-07-03T03:29:52.036Z,30
2017-07-03T03:31:01.253Z,30
2017-07-03T03:32:10.190Z,35
2017-07-03T03:33:19.073Z,35
2017-07-03T03:34:27.961Z,35
2017-07-03T03:35:37.190Z,35
2017-07-03T03:36:46.072Z,40
2017-07-03T03:37:55.759Z,40
2017-07-03T03:39:04.651Z,40
2017-07-03T03:40:13.539Z,45
2017-07-03T03:41:23.076Z,45
2017-07-03T03:42:32.616Z,45
2017-07-03T03:43:41.980Z,50
2017-07-03T03:44:51.858Z,50
2017-07-03T03:46:01.396Z,50
2017-07-03T03:47:11.589Z,55
2017-07-03T03:48:20.475Z,55
2017-07-03T03:49:30.087Z,55
2017-07-03T03:50:39.628Z,55
2017-07-03T03:51:48.515Z,60
2017-07-03T03:52:57.728Z,60
2017-07-03T03:54:06.612Z,60
2017-07-03T03:55:15.873Z,60
2017-07-03T03:56:25.408Z,65
2017-07-03T03:57:34.627Z,65
2017-07-03T03:58:43.845Z,65
2017-07-03T03:59:53.390Z,65
2017-07-03T04:01:03.076Z,70
2017-07-03T04:02:12.289Z,70
2017-07-03T04:03:21.182Z,70
2017-07-03T04:04:30.718Z,70
2017-07-03T04:05:39.604Z,75
2017-07-03T04:06:48.962Z,75
2017-07-03T04:07:57.850Z,75
2017-07-03T04:09:07.718Z,75
2017-07-03T04:10:17.323Z,80
2017-07-03T04:11:26.212Z,80
2017-07-03T04:12:35.674Z,80
2017-07-03T04:13:44.564Z,80
2017-07-03T04:14:53.451Z,80
2017-07-03T04:16:02.661Z,85
2017-07-03T04:17:12.201Z,85
2017-07-03T04:18:21.661Z,85
2017-07-03T04:19:31.209Z,85
2017-07-03T04:20:40.100Z,85
2017-07-03T04:21:49.633Z,90
2017-07-03T04:22:58.839Z,90
2017-07-03T04:24:08.203Z,90
2017-07-03T04:25:17.413Z,90
2017-07-03T04:26:26.302Z,90
2017-07-03T04:27:35.506Z,95
2017-07-03T04:28:44.395Z,95
2017-07-03T04:29:54.181Z,95
2017-07-03T04:31:03.070Z,95
2017-07-03T04:32:11.957Z,95
2017-07-03T04:33:21.175Z,95
2017-07-03T04:34:30.719Z,95
2017-07-03T04:35:39.608Z,95
2017-07-03T04:36:48.497Z,95
2017-07-03T04:37:57.388Z,95
2017-07-03T04:39:06.923Z,95
2017-07-03T04:40:16.145Z,100
2017-07-03T04:41:25.185Z,105
2017-07-03T04:42:34.722Z,100
2017-07-03T04:43:43.614Z,100
2017-07-03T04:44:53.151Z,100
2017-07-03T04:46:02.034Z,100
2017-07-03T04:47:11.392Z,100
2017-07-03T04:48:21.260Z,105
2017-07-03T04:49:30.799Z,105
2017-07-03T04:50:39.690Z,105
2017-07-03T04:51:49.227Z,105
2017-07-03T04:52:59.096Z,105
2017-07-03T04:54:08.635Z,105
2017-07-03T04:55:17.528Z,105
2017-07-03T04:56:26.425Z,110
2017-07-03T04:57:35.309Z,110
2017-07-03T04:58:44.346Z,110
2017-07-03T04:59:53.563Z,110
2017-07-03T05:01:02.450Z,110
2017-07-03T05:02:11.335Z,110
2017-07-03T05:03:21.201Z,110
2017-07-03T05:04:30.787Z,110
2017-07-03T05:05:40.000Z,115
2017-07-03T05:06:49.222Z,115
2017-07-03T05:07:58.437Z,115
2017-07-03T05:09:08.304Z,115
2017-07-03T05:10:17.893Z,115
2017-07-03T05:11:26.779Z,115
2017-07-03T05:12:35.664Z,115
2017-07-03T05:13:44.552Z,115
2017-07-03T05:14:54.420Z,120
2017-07-03T05:16:04.059Z,120
2017-07-03T05:17:13.272Z,120
2017-07-03T05:18:22.489Z,120
2017-07-03T05:19:32.359Z,120
2017-07-03T05:20:41.581Z,125
2017-07-03T05:21:51.095Z,125
2017-07-03T05:22:59.979Z,125
2017-07-03T05:24:09.518Z,130
2017-07-03T05:25:18.739Z,130
2017-07-03T05:26:27.626Z,130
2017-07-03T05:27:36.838Z,135
2017-07-03T05:28:46.425Z,130
2017-07-03T05:29:55.640Z,130
2017-07-03T05:31:04.854Z,130
2017-07-03T05:32:13.789Z,130
2017-07-03T05:33:22.831Z,125
2017-07-03T05:34:32.706Z,130
2017-07-03T05:35:42.564Z,135
2017-07-03T05:36:51.455Z,130
2017-07-03T05:38:01.322Z,130
2017-07-03T05:39:10.361Z,130
2017-07-03T05:40:19.577Z,130
2017-07-03T05:41:28.463Z,130
2017-07-03T05:42:37.676Z,130
2017-07-03T05:43:46.564Z,130
2017-07-03T05:44:55.456Z,135
2017-07-03T05:46:04.350Z,135
2017-07-03T05:47:13.243Z,135
2017-07-03T05:48:22.460Z,135
2017-07-03T05:49:32.007Z,135
2017-07-03T05:50:41.230Z,135
2017-07-03T05:51:50.444Z,135
2017-07-03T05:52:59.327Z,140
2017-07-03T05:54:08.542Z,135
2017-07-03T05:55:18.080Z,135
2017-07-03T05:56:27.392Z,140
2017-07-03T05:57:37.261Z,140
2017-07-03T05:58:46.804Z,140
2017-07-03T05:59:56.674Z,145
2017-07-03T06:01:05.561Z,150
2017-07-03T06:02:14.777Z,155
2017-07-03T06:03:23.997Z,160
2017-07-03T06:04:33.590Z,175
2017-07-03T06:05:43.136Z,195
2017-07-03T06:06:52.357Z,210
2017-07-03T06:08:01.390Z,200
2017-07-03T06:09:10.605Z,205
2017-07-03T06:10:19.822Z,210
2017-07-03T06:11:28.711Z,200
2017-07-03T06:12:37.925Z,175
2017-07-03T06:13:47.624Z,155
2017-07-03T06:14:57.162Z,150
2017-07-03T06:16:06.378Z,145
2017-07-03T06:17:15.917Z,145
2017-07-03T06:18:25.133Z,145
2017-07-03T06:19:34.895Z,145
2017-07-03T06:20:44.112Z,150
2017-07-03T06:21:53.660Z,150
2017-07-03T06:23:02.872Z,150
2017-07-03T06:24:11.765Z,150
2017-07-03T06:25:21.075Z,155
2017-07-03T06:26:30.290Z,155
2017-07-03T06:27:39.179Z,155
2017-07-03T06:28:49.373Z,155
2017-07-03T06:29:58.917Z,155
2017-07-03T06:31:09.093Z,155
2017-07-03T06:32:17.981Z,160
2017-07-03T06:33:27.198Z,160
2017-07-03T06:34:36.102Z,165
2017-07-03T06:35:45.322Z,170
2017-07-03T06:36:54.412Z,170
2017-07-03T06:38:04.274Z,170
2017-07-03T06:39:14.140Z,170
2017-07-03T06:40:23.042Z,175
2017-07-03T06:41:31.940Z,175
2017-07-03T06:42:41.411Z,175
2017-07-03T06:43:51.276Z,170
2017-07-03T06:45:00.818Z,165
2017-07-03T06:46:10.035Z,175
2017-07-03T06:47:19.256Z,175
2017-07-03T06:48:28.895Z,170
2017-07-03T06:49:37.789Z,185
2017-07-03T06:50:46.678Z,200
2017-07-03T06:51:55.566Z,220
2017-07-03T06:53:05.436Z,240
2017-07-03T06:54:14.952Z,250
2017-07-03T06:55:25.157Z,255
2017-07-03T06:56:34.375Z,255
2017-07-03T06:57:43.267Z,255
2017-07-03T06:58:53.189Z,280
2017-07-03T07:00:02.838Z,270
2017-07-03T07:01:12.053Z,265
2017-07-03T07:02:21.272Z,270
2017-07-03T07:03:30.510Z,295
2017-07-03T07:04:39.400Z,290
2017-07-03T07:05:49.091Z,295
2017-07-03T07:06:57.987Z,300
2017-07-03T07:08:07.526Z,310
2017-07-03T07:09:16.433Z,300
2017-07-03T07:10:25.647Z,280
2017-07-03T07:11:34.637Z,270
2017-07-03T07:12:43.530Z,255
2017-07-03T07:13:53.398Z,250
2017-07-03T07:15:02.671Z,245
2017-07-03T07:16:11.556Z,245
2017-07-03T07:17:21.198Z,240
2017-07-03T07:18:30.741Z,235
2017-07-03T07:19:39.957Z,215
2017-07-03T07:20:49.503Z,205
2017-07-03T07:21:58.399Z,195
2017-07-03T07:23:07.764Z,195
2017-07-03T07:24:17.307Z,210
2017-07-03T07:25:26.527Z,205
2017-07-03T07:26:36.063Z,190
2017-07-03T07:27:45.610Z,200
2017-07-03T07:28:55.355Z,225
2017-07-03T07:30:04.245Z,225
2017-07-03T07:31:13.467Z,225
2017-07-03T07:32:22.357Z,230
2017-07-03T07:33:31.291Z,250
2017-07-03T07:34:40.610Z,235
2017-07-03T07:35:50.157Z,230
2017-07-03T07:36:59.372Z,230
2017-07-03T07:38:08.592Z,230
2017-07-03T07:39:18.131Z,230
2017-07-03T07:40:27.398Z,235
2017-07-03T07:41:36.937Z,255
2017-07-03T07:42:46.478Z,245
2017-07-03T07:43:55.372Z,230
2017-07-03T07:45:04.586Z,235
2017-07-03T07:46:13.868Z,220
2017-07-03T07:47:23.084Z,220
2017-07-03T07:48:32.636Z,210
2017-07-03T07:49:41.854Z,220
2017-07-03T07:50:51.075Z,230
2017-07-03T07:52:00.016Z,240
2017-07-03T07:53:08.923Z,245
2017-07-03T07:54:18.466Z,250
2017-07-03T07:55:27.684Z,270
2017-07-03T07:56:36.576Z,290
2017-07-03T07:57:45.475Z,245
2017-07-03T07:58:54.381Z,255
2017-07-03T08:00:03.919Z,255
2017-07-03T08:01:12.814Z,245
2017-07-03T08:02:21.711Z,245
2017-07-03T08:03:31.679Z,260
2017-07-03T08:04:40.574Z,260
2017-07-03T08:05:49.809Z,245
2017-07-03T08:06:58.702Z,245
2017-07-03T08:08:08.248Z,245
2017-07-03T08:09:18.000Z,240
2017-07-03T08:10:26.904Z,245
2017-07-03T08:11:35.802Z,240
2017-07-03T08:12:45.344Z,235
2017-07-03T08:13:54.568Z,245
2017-07-03T08:15:04.278Z,240
2017-07-03T08:16:13.495Z,240
2017-07-03T08:17:23.039Z,240
2017-07-03T08:18:32.907Z,240
2017-07-03T08:19:42.452Z,250
2017-07-03T08:20:51.922Z,255
2017-07-03T08:22:01.468Z,255
2017-07-03T08:23:10.360Z,260
2017-07-03T08:24:19.902Z,260
2017-07-03T08:25:29.443Z,275
2017-07-03T08:26:38.537Z,290
2017-07-03T08:27:47.762Z,300
2017-07-03T08:28:56.652Z,300
2017-07-03T08:30:05.541Z,310
2017-07-03T08:31:14.429Z,315
2017-07-03T08:32:23.474Z,315
2017-07-03T08:33:33.395Z,310
2017-07-03T08:34:42.939Z,310
2017-07-03T08:35:51.830Z,300
2017-07-03T08:37:01.373Z,285
2017-07-03T08:38:11.076Z,265
2017-07-03T08:39:20.310Z,265
2017-07-03T08:40:29.528Z,245
2017-07-03T08:41:38.421Z,235
2017-07-03T08:42:47.315Z,220
2017-07-03T08:43:57.281Z,220
2017-07-03T08:45:06.825Z,225
2017-07-03T08:46:15.719Z,235
2017-07-03T08:47:24.622Z,235
2017-07-03T08:48:34.170Z,235
2017-07-03T08:49:43.442Z,235
2017-07-03T08:50:52.666Z,235
2017-07-03T08:52:01.923Z,235
2017-07-03T08:53:11.167Z,235
2017-07-03T08:54:20.794Z,235
2017-07-03T08:55:30.410Z,235
2017-07-03T08:56:39.662Z,240
2017-07-03T08:57:48.620Z,250
2017-07-03T08:58:58.171Z,250
2017-07-03T09:00:07.396Z,255
2017-07-03T09:01:16.676Z,255
2017-07-03T09:02:25.904Z,255
2017-07-03T09:03:35.776Z,255
2017-07-03T09:04:45.327Z,260
2017-07-03T09:05:54.583Z,260
2017-07-03T09:07:03.962Z,275
2017-07-03T09:08:13.180Z,280
2017-07-03T09:09:22.087Z,275
2017-07-03T09:10:31.311Z,275
2017-07-03T09:11:40.213Z,275
2017-07-03T09:12:50.091Z,275
2017-07-03T09:13:59.036Z,280
2017-07-03T09:15:08.263Z,280
2017-07-03T09:16:17.806Z,275
2017-07-03T09:17:28.002Z,270
2017-07-03T09:18:37.802Z,265
2017-07-03T09:19:47.673Z,260
2017-07-03T09:20:56.565Z,260
2017-07-03T09:22:06.105Z,255
2017-07-03T09:23:15.976Z,250
2017-07-03T09:24:25.444Z,255
2017-07-03T09:25:34.349Z,250
2017-07-03T09:26:43.566Z,245
2017-07-03T09:27:53.175Z,250
2017-07-03T09:29:02.399Z,250
2017-07-03T09:30:11.994Z,255
2017-07-03T09:31:20.891Z,250
2017-07-03T09:32:29.781Z,250
2017-07-03T09:33:39.333Z,255
2017-07-03T09:34:49.201Z,260
2017-07-03T09:35:58.752Z,265
2017-07-03T09:37:07.649Z,275
2017-07-03T09:38:16.872Z,280
2017-07-03T09:39:26.090Z,290
2017-07-03T09:40:34.979Z,295
2017-07-03T09:41:44.071Z,300
2017-07-03T09:42:53.626Z,300
2017-07-03T09:44:02.521Z,300
2017-07-03T09:45:11.416Z,295
2017-07-03T09:46:20.308Z,305
2017-07-03T09:47:29.255Z,310
2017-07-03T09:48:39.129Z,310
2017-07-03T09:49:48.350Z,350
2017-07-03T09:50:57.242Z,385
2017-07-03T09:52:06.134Z,385
2017-07-03T09:53:15.927Z,370
2017-07-03T09:54:24.819Z,380
2017-07-03T09:55:34.363Z,410
2017-07-03T09:56:43.254Z,445
2017-07-03T09:57:52.478Z,465
2017-07-03T09:59:02.503Z,460
2017-07-03T10:00:11.408Z,430
2017-07-03T10:01:20.625Z,370
2017-07-03T10:02:29.842Z,340
2017-07-03T10:03:39.064Z,355
2017-07-03T10:04:48.338Z,365
2017-07-03T10:05:57.242Z,360
2017-07-03T10:07:06.137Z,340
2017-07-03T10:08:15.042Z,345
2017-07-03T10:09:24.280Z,350
2017-07-03T10:10:33.271Z,360
2017-07-03T10:11:42.488Z,370
2017-07-03T10:12:51.710Z,360
2017-07-03T10:14:01.261Z,340
2017-07-03T10:15:10.477Z,360
2017-07-03T10:16:20.098Z,365
2017-07-03T10:17:29.323Z,405
2017-07-03T10:18:38.216Z,415
2017-07-03T10:19:47.762Z,435
2017-07-03T10:20:56.988Z,405
2017-07-03T10:22:06.352Z,405
2017-07-03T10:23:15.569Z,410
2017-07-03T10:24:24.788Z,545
2017-07-03T10:25:34.012Z,595
2017-07-03T10:26:42.907Z,645
2017-07-03T10:27:52.556Z,535
2017-07-03T10:29:02.116Z,470
2017-07-03T10:30:11.010Z,445
2017-07-03T10:31:19.906Z,390
2017-07-03T10:32:28.796Z,455
2017-07-03T10:33:37.844Z,515
2017-07-03T10:34:46.741Z,410
2017-07-03T10:35:55.647Z,395
2017-07-03T10:37:05.212Z,400
2017-07-03T10:38:15.081Z,465
2017-07-03T10:39:24.706Z,495
2017-07-03T10:40:33.925Z,465
2017-07-03T10:41:43.144Z,530
2017-07-03T10:42:52.365Z,570
2017-07-03T10:44:01.918Z,600
2017-07-03T10:45:11.288Z,575
2017-07-03T10:46:20.180Z,575
2017-07-03T10:47:29.399Z,600
2017-07-03T10:48:38.623Z,620
2017-07-03T10:49:48.166Z,590
2017-07-03T10:50:57.964Z,545
2017-07-03T10:52:07.182Z,515
2017-07-03T10:53:16.079Z,530
2017-07-03T10:54:25.954Z,600
2017-07-03T10:55:35.169Z,655
2017-07-03T10:56:44.872Z,585
2017-07-03T10:57:54.094Z,575
2017-07-03T10:59:02.991Z,590
2017-07-03T11:00:11.924Z,620
2017-07-03T11:01:21.146Z,595
2017-07-03T11:02:30.465Z,520
2017-07-03T11:03:40.007Z,440
2017-07-03T11:04:49.321Z,475
2017-07-03T11:05:59.229Z,485
2017-07-03T11:07:08.124Z,500
2017-07-03T11:08:17.653Z,555
2017-07-03T11:09:26.877Z,490
2017-07-03T11:10:36.097Z,530
2017-07-03T11:11:45.322Z,570
2017-07-03T11:12:55.530Z,625
2017-07-03T11:14:04.901Z,605
2017-07-03T11:15:14.121Z,595
2017-07-03T11:16:23.342Z,670
2017-07-03T11:17:32.561Z,710
2017-07-03T11:18:41.786Z,650
2017-07-03T11:19:50.882Z,700
2017-07-03T11:21:00.101Z,735
2017-07-03T11:22:08.998Z,655
2017-07-03T11:23:17.891Z,685
2017-07-03T11:24:27.438Z,640
2017-07-03T11:25:36.987Z,625
2017-07-03T11:26:45.887Z,585
2017-07-03T11:27:55.432Z,600
2017-07-03T11:29:04.976Z,510
2017-07-03T11:30:14.240Z,565
2017-07-03T11:31:23.136Z,720
2017-07-03T11:32:32.682Z,750
2017-07-03T11:33:42.232Z,690
2017-07-03T11:34:52.105Z,750
2017-07-03T11:36:01.657Z,715
2017-07-03T11:37:10.876Z,680
2017-07-03T11:38:20.102Z,820
2017-07-03T11:39:29.984Z,825
2017-07-03T11:40:38.881Z,735
2017-07-03T11:41:48.104Z,670
2017-07-03T11:42:57.153Z,845
2017-07-03T11:44:06.369Z,910
2017-07-03T11:45:15.589Z,825
2017-07-03T11:46:24.808Z,830
2017-07-03T11:47:34.031Z,870
2017-07-03T11:48:43.128Z,855
2017-07-03T11:49:52.674Z,1070
2017-07-03T11:51:01.896Z,950
2017-07-03T11:52:11.197Z,900
2017-07-03T11:53:20.747Z,815
2017-07-03T11:54:30.601Z,840
2017-07-03T11:55:39.821Z,985
2017-07-03T11:56:49.038Z,1565
2017-07-03T11:57:57.937Z,2120
2017-07-03T11:59:07.165Z,2270
2017-07-03T12:00:16.595Z,1825
2017-07-03T12:01:25.494Z,1475
2017-07-03T12:02:34.390Z,1815
2017-07-03T12:03:43.944Z,2595
2017-07-03T12:04:53.175Z,1930
2017-07-03T12:06:02.498Z,740
2017-07-03T12:07:12.048Z,600
2017-07-03T12:08:20.954Z,550
2017-07-03T12:09:30.183Z,540
2017-07-03T12:10:39.406Z,655
2017-07-03T12:11:49.258Z,1110
2017-07-03T12:12:58.152Z,700
2017-07-03T12:14:07.054Z,805
2017-07-03T12:15:16.284Z,3545
2017-07-03T12:16:25.507Z,1085
2017-07-03T12:17:35.033Z,665
2017-07-03T12:18:44.262Z,600
2017-07-03T12:19:54.142Z,705
2017-07-03T12:21:03.365Z,1705
2017-07-03T12:22:12.597Z,1540
2017-07-03T12:23:21.638Z,3035
2017-07-03T12:24:30.879Z,3460
2017-07-03T12:25:40.429Z,960
2017-07-03T12:26:49.980Z,2395
2017-07-03T12:27:59.528Z,2870
2017-07-03T12:29:08.585Z,3005
2017-07-03T12:30:18.141Z,2535
2017-07-03T12:31:27.367Z,3515
2017-07-03T12:32:37.243Z,3295
2017-07-03T12:33:47.129Z,2865
2017-07-03T12:34:56.508Z,4165
2017-07-03T12:36:06.061Z,4530
2017-07-03T12:37:15.940Z,2545
2017-07-03T12:38:24.845Z,3890
2017-07-03T12:39:34.402Z,4125
2017-07-03T12:40:44.101Z,3365
2017-07-03T12:41:53.003Z,3390
2017-07-03T12:43:02.231Z,4180
2017-07-03T12:44:11.463Z,3380
2017-07-03T12:45:21.021Z,1470
2017-07-03T12:46:30.224Z,1470
2017-07-03T12:47:39.130Z,1210
2017-07-03T12:48:49.010Z,3345
2017-07-03T12:49:58.564Z,1555
2017-07-03T12:51:07.796Z,4265
2017-07-03T12:52:17.174Z,2215
2017-07-03T12:53:26.079Z,1475
2017-07-03T12:54:34.986Z,1110
2017-07-03T12:55:44.213Z,2720
2017-07-03T12:56:53.117Z,4030
2017-07-03T12:58:02.998Z,4350
2017-07-03T12:59:13.208Z,3580
2017-07-03T13:00:22.113Z,2245
2017-07-03T13:01:31.020Z,1585
2017-07-03T13:02:40.264Z,1560
2017-07-03T13:03:49.975Z,2290
2017-07-03T13:04:59.208Z,980
2017-07-03T13:06:08.442Z,1205
2017-07-03T13:07:17.681Z,2065
2017-07-03T13:08:26.907Z,2925
2017-07-03T13:09:35.960Z,2500
2017-07-03T13:10:45.191Z,2480
2017-07-03T13:11:54.423Z,1510
2017-07-03T13:13:03.651Z,1475
2017-07-03T13:14:12.551Z,1250
2017-07-03T13:15:21.979Z,3090
2017-07-03T13:16:30.884Z,3645
2017-07-03T13:17:40.442Z,2505
2017-07-03T13:18:50.001Z,3360
2017-07-03T13:19:59.880Z,1315
2017-07-03T13:21:09.212Z,1595
2017-07-03T13:22:18.128Z,955
2017-07-03T13:23:27.362Z,915
2017-07-03T13:24:36.929Z,1310
2017-07-03T13:25:45.831Z,1485
2017-07-03T13:26:55.152Z,1045
2017-07-03T13:28:04.382Z,1035
2017-07-03T13:29:14.261Z,1110
2017-07-03T13:30:23.166Z,1025
2017-07-03T13:31:32.069Z,1915
2017-07-03T13:32:41.775Z,4215
2017-07-03T13:33:51.341Z,1925
2017-07-03T13:35:00.249Z,2000
2017-07-03T13:36:09.170Z,2390
2017-07-03T13:37:18.398Z,1360
2017-07-03T13:38:27.957Z,3050
2017-07-03T13:39:37.201Z,2105
2017-07-03T13:40:46.129Z,815
2017-07-03T13:41:55.037Z,740
2017-07-03T13:43:03.947Z,780
2017-07-03T13:44:13.280Z,1065
2017-07-03T13:45:22.836Z,2470
2017-07-03T13:46:32.078Z,2715
2017-07-03T13:47:41.313Z,1930
2017-07-03T13:48:50.220Z,1315
2017-07-03T13:49:59.719Z,2675
2017-07-03T13:51:09.276Z,1800
2017-07-03T13:52:18.834Z,2855
2017-07-03T13:53:28.077Z,2865
2017-07-03T13:54:38.033Z,2810
2017-07-03T13:55:47.985Z,3730
2017-07-03T13:56:56.891Z,1805
2017-07-03T13:58:05.803Z,3335
2017-07-03T13:59:15.043Z,2615
2017-07-03T14:00:24.279Z,1400
2017-07-03T14:01:33.339Z,625
2017-07-03T14:02:42.573Z,485
2017-07-03T14:03:51.830Z,580
2017-07-03T14:05:01.400Z,1725
2017-07-03T14:06:10.308Z,2025
2017-07-03T14:07:19.744Z,1615
2017-07-03T14:08:29.080Z,1555
2017-07-03T14:09:38.309Z,1055
2017-07-03T14:10:47.208Z,1160
2017-07-03T14:11:56.434Z,1180
2017-07-03T14:13:05.718Z,1050
2017-07-03T14:14:14.630Z,980
2017-07-03T14:15:24.541Z,750
2017-07-03T14:16:33.765Z,715
2017-07-03T14:17:43.319Z,795
2017-07-03T14:18:52.970Z,810
2017-07-03T14:20:02.197Z,890
2017-07-03T14:21:11.749Z,1250
2017-07-03T14:22:20.650Z,1320
2017-07-03T14:23:29.556Z,1320
2017-07-03T14:24:38.782Z,1630
2017-07-03T14:25:47.690Z,1315
2017-07-03T14:26:57.242Z,1210
2017-07-03T14:28:07.125Z,890
2017-07-03T14:29:16.678Z,815
2017-07-03T14:30:25.902Z,1115
2017-07-03T14:31:35.126Z,755
2017-07-03T14:32:44.352Z,605
2017-07-03T14:33:53.255Z,615
2017-07-03T14:35:02.486Z,420
2017-07-03T14:36:11.763Z,345
2017-07-03T14:37:20.677Z,335
2017-07-03T14:38:29.911Z,345
2017-07-03T14:39:38.814Z,310
2017-07-03T14:40:48.707Z,300
2017-07-03T14:41:57.655Z,245
2017-07-03T14:43:06.884Z,190
2017-07-03T14:44:16.112Z,180
2017-07-03T14:45:25.339Z,215
2017-07-03T14:46:34.244Z,220
2017-07-03T14:47:43.449Z,235
2017-07-03T14:48:53.326Z,290
2017-07-03T14:50:02.550Z,305
2017-07-03T14:51:11.451Z,275
2017-07-03T14:52:21.007Z,245
2017-07-03T14:53:30.561Z,255
2017-07-03T14:54:40.110Z,310
2017-07-03T14:55:49.665Z,410
2017-07-03T14:56:58.892Z,505
2017-07-03T14:58:08.116Z,605
2017-07-03T14:59:17.865Z,1945
2017-07-03T15:00:26.763Z,1025
2017-07-03T15:01:35.672Z,2735
2017-07-03T15:02:45.555Z,1395
2017-07-03T15:03:55.116Z,2095
2017-07-03T15:05:04.318Z,705
2017-07-03T15:06:13.540Z,1125
2017-07-03T15:07:23.413Z,1780
2017-07-03T15:08:32.285Z,665
2017-07-03T15:09:41.149Z,545
2017-07-03T15:10:50.313Z,600
2017-07-03T15:11:59.179Z,650
2017-07-03T15:13:08.044Z,720
2017-07-03T15:14:16.909Z,855
2017-07-03T15:15:25.775Z,2255
2017-07-03T15:16:34.842Z,1430
2017-07-03T15:17:43.706Z,1895
2017-07-03T15:18:52.573Z,1700
2017-07-03T15:20:01.440Z,1760
2017-07-03T15:21:10.308Z,850
2017-07-03T15:22:19.376Z,660
2017-07-03T15:23:28.242Z,630
2017-07-03T15:24:37.109Z,650
2017-07-03T15:25:45.977Z,740
2017-07-03T15:26:54.844Z,880
2017-07-03T15:28:03.810Z,1140
2017-07-03T15:29:12.682Z,965
2017-07-03T15:30:21.551Z,885
2017-07-03T15:31:30.421Z,840
2017-07-03T15:32:39.285Z,885
2017-07-03T15:33:48.251Z,855
2017-07-03T15:34:57.117Z,750
2017-07-03T15:36:05.980Z,500
2017-07-03T15:37:14.845Z,370
2017-07-03T15:38:23.737Z,295
2017-07-03T15:39:32.754Z,220
2017-07-03T15:40:41.617Z,155
2017-07-03T15:41:50.480Z,115
2017-07-03T15:42:59.347Z,100
2017-07-03T15:44:08.206Z,85
2017-07-03T15:45:17.170Z,90
2017-07-03T15:46:26.032Z,90
2017-07-03T15:47:35.225Z,85
2017-07-03T15:48:44.089Z,90
2017-07-03T15:49:52.953Z,100
2017-07-03T15:51:02.063Z,130
2017-07-03T15:52:10.924Z,165
2017-07-03T15:53:19.784Z,180
2017-07-03T15:54:28.643Z,180
2017-07-03T15:55:37.504Z,175
2017-07-03T15:56:46.519Z,180
2017-07-03T15:57:55.379Z,200
2017-07-03T15:59:04.239Z,240
2017-07-03T16:00:13.099Z,300
2017-07-03T16:01:21.959Z,410
2017-07-03T16:02:30.917Z,500
2017-07-03T16:03:39.778Z,555
2017-07-03T16:04:48.639Z,640